sensor_id;sensor_type;location;lat;lon;timestamp;P1;durP1;ratioP1;P2;durP2;ratioP2
74124;SDS011;62475;52.192;5.396;2023-06-05T00:01:59;10.10;;;4.88;;
74124;SDS011;62475;52.192;5.396;2023-06-05T00:04:25;7.40;;;3.97;;
74124;SDS011;62475;52.192;5.396;2023-06-05T00:06:50;10.27;;;4.43;;
74124;SDS011;62475;52.192;5.396;2023-06-05T00:09:16;9.65;;;5.03;;
74124;SDS011;62475;52.192;5.396;2023-06-05T00:11:42;8.38;;;4.45;;
74124;SDS011;62475;52.192;5.396;2023-06-05T00:14:07;7.43;;;4.70;;
74124;SDS011;62475;52.192;5.396;2023-06-05T00:16:33;9.43;;;4.60;;
74124;SDS011;62475;52.192;5.396;2023-06-05T00:18:59;6.97;;;4.63;;
74124;SDS011;62475;52.192;5.396;2023-06-05T00:21:26;9.48;;;5.07;;
74124;SDS011;62475;52.192;5.396;2023-06-05T00:23:51;10.10;;;4.47;;
74124;SDS011;62475;52.192;5.396;2023-06-05T00:26:17;9.05;;;5.20;;
74124;SDS011;62475;52.192;5.396;2023-06-05T00:28:42;11.57;;;5.35;;
74124;SDS011;62475;52.192;5.396;2023-06-05T00:31:07;9.10;;;4.80;;
74124;SDS011;62475;52.192;5.396;2023-06-05T00:33:33;9.93;;;5.32;;
74124;SDS011;62475;52.192;5.396;2023-06-05T00:35:58;11.17;;;4.67;;
74124;SDS011;62475;52.192;5.396;2023-06-05T00:38:23;10.43;;;5.40;;
74124;SDS011;62475;52.192;5.396;2023-06-05T00:40:48;10.18;;;5.32;;
74124;SDS011;62475;52.192;5.396;2023-06-05T00:43:14;9.23;;;4.72;;
74124;SDS011;62475;52.192;5.396;2023-06-05T00:45:39;11.18;;;5.50;;
74124;SDS011;62475;52.192;5.396;2023-06-05T00:48:04;8.35;;;4.75;;
74124;SDS011;62475;52.192;5.396;2023-06-05T00:50:31;8.15;;;4.88;;
74124;SDS011;62475;52.192;5.396;2023-06-05T00:52:57;9.18;;;5.00;;
74124;SDS011;62475;52.192;5.396;2023-06-05T00:55:23;12.45;;;5.55;;
74124;SDS011;62475;52.192;5.396;2023-06-05T00:57:50;10.38;;;5.10;;
74124;SDS011;62475;52.192;5.396;2023-06-05T01:00:15;12.30;;;5.93;;
74124;SDS011;62475;52.192;5.396;2023-06-05T01:02:41;12.82;;;4.63;;
74124;SDS011;62475;52.192;5.396;2023-06-05T01:05:07;11.05;;;5.15;;
74124;SDS011;62475;52.192;5.396;2023-06-05T01:07:33;13.45;;;5.70;;
74124;SDS011;62475;52.192;5.396;2023-06-05T01:10:00;9.35;;;5.50;;
74124;SDS011;62475;52.192;5.396;2023-06-05T01:12:28;11.35;;;5.32;;
74124;SDS011;62475;52.192;5.396;2023-06-05T01:15:00;10.73;;;5.70;;
74124;SDS011;62475;52.192;5.396;2023-06-05T01:17:27;10.80;;;5.88;;
74124;SDS011;62475;52.192;5.396;2023-06-05T01:19:57;11.32;;;6.05;;
74124;SDS011;62475;52.192;5.396;2023-06-05T01:22:34;13.68;;;5.93;;
74124;SDS011;62475;52.192;5.396;2023-06-05T01:25:00;12.15;;;6.07;;
74124;SDS011;62475;52.192;5.396;2023-06-05T01:27:44;11.90;;;6.65;;
74124;SDS011;62475;52.192;5.396;2023-06-05T01:30:21;10.05;;;5.57;;
74124;SDS011;62475;52.192;5.396;2023-06-05T01:32:57;10.63;;;5.47;;
74124;SDS011;62475;52.192;5.396;2023-06-05T01:35:28;13.95;;;5.28;;
74124;SDS011;62475;52.192;5.396;2023-06-05T01:38:02;11.60;;;6.25;;
74124;SDS011;62475;52.192;5.396;2023-06-05T01:40:30;12.30;;;6.10;;
74124;SDS011;62475;52.192;5.396;2023-06-05T01:42:58;12.95;;;6.10;;
74124;SDS011;62475;52.192;5.396;2023-06-05T01:45:25;11.35;;;5.38;;
74124;SDS011;62475;52.192;5.396;2023-06-05T01:47:51;12.77;;;5.85;;
74124;SDS011;62475;52.192;5.396;2023-06-05T01:50:18;10.30;;;5.75;;
74124;SDS011;62475;52.192;5.396;2023-06-05T01:52:44;16.00;;;6.25;;
74124;SDS011;62475;52.192;5.396;2023-06-05T01:55:14;11.63;;;5.63;;
74124;SDS011;62475;52.192;5.396;2023-06-05T01:57:42;13.07;;;6.22;;
74124;SDS011;62475;52.192;5.396;2023-06-05T02:00:09;11.90;;;5.63;;
74124;SDS011;62475;52.192;5.396;2023-06-05T02:02:41;10.40;;;5.88;;
74124;SDS011;62475;52.192;5.396;2023-06-05T02:05:08;15.55;;;7.20;;
74124;SDS011;62475;52.192;5.396;2023-06-05T02:07:38;13.10;;;6.28;;
74124;SDS011;62475;52.192;5.396;2023-06-05T02:10:05;13.63;;;6.07;;
74124;SDS011;62475;52.192;5.396;2023-06-05T02:12:32;11.88;;;7.07;;
74124;SDS011;62475;52.192;5.396;2023-06-05T02:14:59;10.43;;;5.32;;
74124;SDS011;62475;52.192;5.396;2023-06-05T02:17:24;15.70;;;6.57;;
74124;SDS011;62475;52.192;5.396;2023-06-05T02:19:53;15.10;;;6.38;;
74124;SDS011;62475;52.192;5.396;2023-06-05T02:22:18;13.98;;;6.65;;
74124;SDS011;62475;52.192;5.396;2023-06-05T02:24:44;14.02;;;6.40;;
74124;SDS011;62475;52.192;5.396;2023-06-05T02:27:15;14.35;;;6.53;;
74124;SDS011;62475;52.192;5.396;2023-06-05T02:29:41;11.60;;;5.55;;
74124;SDS011;62475;52.192;5.396;2023-06-05T02:32:06;12.98;;;6.30;;
74124;SDS011;62475;52.192;5.396;2023-06-05T02:34:33;13.43;;;6.53;;
74124;SDS011;62475;52.192;5.396;2023-06-05T02:36:59;14.88;;;6.50;;
74124;SDS011;62475;52.192;5.396;2023-06-05T02:39:25;12.25;;;6.05;;
74124;SDS011;62475;52.192;5.396;2023-06-05T02:41:53;16.40;;;6.65;;
74124;SDS011;62475;52.192;5.396;2023-06-05T02:44:18;13.60;;;6.25;;
74124;SDS011;62475;52.192;5.396;2023-06-05T02:46:43;10.45;;;6.32;;
74124;SDS011;62475;52.192;5.396;2023-06-05T02:49:09;17.60;;;6.78;;
74124;SDS011;62475;52.192;5.396;2023-06-05T02:51:35;13.63;;;6.60;;
74124;SDS011;62475;52.192;5.396;2023-06-05T02:54:00;11.35;;;5.43;;
74124;SDS011;62475;52.192;5.396;2023-06-05T02:56:27;11.48;;;5.80;;
74124;SDS011;62475;52.192;5.396;2023-06-05T02:58:52;14.32;;;6.35;;
74124;SDS011;62475;52.192;5.396;2023-06-05T03:01:18;14.68;;;6.38;;
74124;SDS011;62475;52.192;5.396;2023-06-05T03:03:46;13.05;;;5.75;;
74124;SDS011;62475;52.192;5.396;2023-06-05T03:06:13;13.85;;;7.20;;
74124;SDS011;62475;52.192;5.396;2023-06-05T03:08:45;14.18;;;6.93;;
74124;SDS011;62475;52.192;5.396;2023-06-05T03:11:13;12.35;;;6.70;;
74124;SDS011;62475;52.192;5.396;2023-06-05T03:13:38;14.13;;;6.78;;
74124;SDS011;62475;52.192;5.396;2023-06-05T03:16:04;13.80;;;6.35;;
74124;SDS011;62475;52.192;5.396;2023-06-05T03:18:29;12.75;;;6.95;;
74124;SDS011;62475;52.192;5.396;2023-06-05T03:20:55;14.13;;;6.40;;
74124;SDS011;62475;52.192;5.396;2023-06-05T03:23:27;15.75;;;6.68;;
74124;SDS011;62475;52.192;5.396;2023-06-05T03:25:53;15.68;;;7.00;;
74124;SDS011;62475;52.192;5.396;2023-06-05T03:28:19;12.07;;;6.25;;
74124;SDS011;62475;52.192;5.396;2023-06-05T03:30:46;12.82;;;6.75;;
74124;SDS011;62475;52.192;5.396;2023-06-05T03:33:13;14.45;;;6.90;;
74124;SDS011;62475;52.192;5.396;2023-06-05T03:35:40;14.90;;;7.15;;
74124;SDS011;62475;52.192;5.396;2023-06-05T03:38:07;14.05;;;6.35;;
74124;SDS011;62475;52.192;5.396;2023-06-05T03:40:33;14.50;;;6.05;;
74124;SDS011;62475;52.192;5.396;2023-06-05T03:42:58;14.93;;;6.83;;
74124;SDS011;62475;52.192;5.396;2023-06-05T03:45:23;15.53;;;5.90;;
74124;SDS011;62475;52.192;5.396;2023-06-05T03:47:51;13.82;;;5.97;;
74124;SDS011;62475;52.192;5.396;2023-06-05T03:50:17;12.52;;;6.80;;
74124;SDS011;62475;52.192;5.396;2023-06-05T03:52:42;14.98;;;6.95;;
74124;SDS011;62475;52.192;5.396;2023-06-05T03:55:08;14.20;;;6.75;;
74124;SDS011;62475;52.192;5.396;2023-06-05T03:57:35;19.15;;;7.63;;
74124;SDS011;62475;52.192;5.396;2023-06-05T04:00:02;12.93;;;6.70;;
74124;SDS011;62475;52.192;5.396;2023-06-05T04:02:30;14.70;;;7.75;;
74124;SDS011;62475;52.192;5.396;2023-06-05T04:04:55;12.77;;;6.63;;
74124;SDS011;62475;52.192;5.396;2023-06-05T04:07:20;13.00;;;6.57;;
74124;SDS011;62475;52.192;5.396;2023-06-05T04:09:46;15.68;;;6.55;;
74124;SDS011;62475;52.192;5.396;2023-06-05T04:12:11;14.27;;;7.30;;
74124;SDS011;62475;52.192;5.396;2023-06-05T04:14:38;18.42;;;6.88;;
74124;SDS011;62475;52.192;5.396;2023-06-05T04:17:04;10.43;;;5.88;;
74124;SDS011;62475;52.192;5.396;2023-06-05T04:19:31;12.40;;;6.45;;
74124;SDS011;62475;52.192;5.396;2023-06-05T04:21:56;12.60;;;6.75;;
74124;SDS011;62475;52.192;5.396;2023-06-05T04:24:21;14.75;;;6.68;;
74124;SDS011;62475;52.192;5.396;2023-06-05T04:26:47;10.60;;;6.28;;
74124;SDS011;62475;52.192;5.396;2023-06-05T04:29:12;18.40;;;5.80;;
74124;SDS011;62475;52.192;5.396;2023-06-05T04:31:41;11.65;;;6.40;;
74124;SDS011;62475;52.192;5.396;2023-06-05T04:34:07;12.85;;;6.85;;
74124;SDS011;62475;52.192;5.396;2023-06-05T04:36:34;13.40;;;6.70;;
74124;SDS011;62475;52.192;5.396;2023-06-05T04:39:02;14.73;;;6.90;;
74124;SDS011;62475;52.192;5.396;2023-06-05T04:41:46;14.38;;;6.10;;
74124;SDS011;62475;52.192;5.396;2023-06-05T04:44:12;12.73;;;6.78;;
74124;SDS011;62475;52.192;5.396;2023-06-05T04:46:42;13.18;;;5.72;;
74124;SDS011;62475;52.192;5.396;2023-06-05T04:49:11;11.45;;;6.63;;
74124;SDS011;62475;52.192;5.396;2023-06-05T04:51:38;11.85;;;5.93;;
74124;SDS011;62475;52.192;5.396;2023-06-05T04:54:03;12.50;;;5.40;;
74124;SDS011;62475;52.192;5.396;2023-06-05T04:56:30;15.10;;;6.82;;
74124;SDS011;62475;52.192;5.396;2023-06-05T04:58:57;12.50;;;7.22;;
74124;SDS011;62475;52.192;5.396;2023-06-05T05:01:26;16.17;;;6.80;;
74124;SDS011;62475;52.192;5.396;2023-06-05T05:03:52;13.63;;;6.93;;
74124;SDS011;62475;52.192;5.396;2023-06-05T05:06:19;11.68;;;6.40;;
74124;SDS011;62475;52.192;5.396;2023-06-05T05:08:45;10.80;;;6.50;;
74124;SDS011;62475;52.192;5.396;2023-06-05T05:11:13;11.23;;;6.07;;
74124;SDS011;62475;52.192;5.396;2023-06-05T05:13:39;13.13;;;6.57;;
74124;SDS011;62475;52.192;5.396;2023-06-05T05:16:06;11.68;;;5.72;;
74124;SDS011;62475;52.192;5.396;2023-06-05T05:18:35;13.27;;;6.90;;
74124;SDS011;62475;52.192;5.396;2023-06-05T05:21:03;14.73;;;6.90;;
74124;SDS011;62475;52.192;5.396;2023-06-05T05:23:30;11.48;;;6.13;;
74124;SDS011;62475;52.192;5.396;2023-06-05T05:25:55;12.77;;;6.50;;
74124;SDS011;62475;52.192;5.396;2023-06-05T05:28:21;14.23;;;5.93;;
74124;SDS011;62475;52.192;5.396;2023-06-05T05:30:46;18.42;;;6.82;;
74124;SDS011;62475;52.192;5.396;2023-06-05T05:33:13;10.25;;;6.22;;
74124;SDS011;62475;52.192;5.396;2023-06-05T05:35:39;12.98;;;6.53;;
74124;SDS011;62475;52.192;5.396;2023-06-05T05:38:05;14.52;;;7.35;;
74124;SDS011;62475;52.192;5.396;2023-06-05T05:40:31;14.77;;;6.13;;
74124;SDS011;62475;52.192;5.396;2023-06-05T05:42:56;20.58;;;7.95;;
74124;SDS011;62475;52.192;5.396;2023-06-05T05:45:22;15.15;;;6.95;;
74124;SDS011;62475;52.192;5.396;2023-06-05T05:47:47;15.25;;;7.53;;
74124;SDS011;62475;52.192;5.396;2023-06-05T05:50:12;13.85;;;6.75;;
74124;SDS011;62475;52.192;5.396;2023-06-05T05:52:39;13.70;;;7.30;;
74124;SDS011;62475;52.192;5.396;2023-06-05T05:55:04;11.63;;;7.05;;
74124;SDS011;62475;52.192;5.396;2023-06-05T05:57:31;15.45;;;6.90;;
74124;SDS011;62475;52.192;5.396;2023-06-05T05:59:57;14.45;;;6.28;;
74124;SDS011;62475;52.192;5.396;2023-06-05T06:02:22;14.55;;;6.97;;
74124;SDS011;62475;52.192;5.396;2023-06-05T06:04:47;15.15;;;6.90;;
74124;SDS011;62475;52.192;5.396;2023-06-05T06:07:13;15.80;;;7.22;;
74124;SDS011;62475;52.192;5.396;2023-06-05T06:09:39;15.63;;;7.13;;
74124;SDS011;62475;52.192;5.396;2023-06-05T06:12:05;18.45;;;6.28;;
74124;SDS011;62475;52.192;5.396;2023-06-05T06:14:32;14.38;;;6.82;;
74124;SDS011;62475;52.192;5.396;2023-06-05T06:16:58;14.10;;;6.68;;
74124;SDS011;62475;52.192;5.396;2023-06-05T06:19:24;12.93;;;6.53;;
74124;SDS011;62475;52.192;5.396;2023-06-05T06:21:51;14.10;;;6.90;;
74124;SDS011;62475;52.192;5.396;2023-06-05T06:24:16;15.68;;;6.85;;
74124;SDS011;62475;52.192;5.396;2023-06-05T06:26:45;12.57;;;6.88;;
74124;SDS011;62475;52.192;5.396;2023-06-05T06:29:13;13.95;;;6.93;;
74124;SDS011;62475;52.192;5.396;2023-06-05T06:31:46;12.40;;;6.78;;
74124;SDS011;62475;52.192;5.396;2023-06-05T06:34:11;11.57;;;7.05;;
74124;SDS011;62475;52.192;5.396;2023-06-05T06:36:37;13.15;;;7.30;;
74124;SDS011;62475;52.192;5.396;2023-06-05T06:39:05;13.10;;;6.88;;
74124;SDS011;62475;52.192;5.396;2023-06-05T06:41:33;12.48;;;6.90;;
74124;SDS011;62475;52.192;5.396;2023-06-05T06:44:00;14.48;;;6.85;;
74124;SDS011;62475;52.192;5.396;2023-06-05T06:46:25;10.30;;;6.13;;
74124;SDS011;62475;52.192;5.396;2023-06-05T06:48:51;12.32;;;6.65;;
74124;SDS011;62475;52.192;5.396;2023-06-05T06:51:16;15.18;;;6.40;;
74124;SDS011;62475;52.192;5.396;2023-06-05T06:53:43;10.40;;;6.28;;
74124;SDS011;62475;52.192;5.396;2023-06-05T06:56:08;10.02;;;5.43;;
74124;SDS011;62475;52.192;5.396;2023-06-05T06:58:34;11.75;;;6.55;;
74124;SDS011;62475;52.192;5.396;2023-06-05T07:00:59;10.27;;;5.70;;
74124;SDS011;62475;52.192;5.396;2023-06-05T07:03:25;11.93;;;6.50;;
74124;SDS011;62475;52.192;5.396;2023-06-05T07:05:50;11.15;;;6.05;;
74124;SDS011;62475;52.192;5.396;2023-06-05T07:08:16;11.10;;;7.15;;
74124;SDS011;62475;52.192;5.396;2023-06-05T07:10:42;11.25;;;5.25;;
74124;SDS011;62475;52.192;5.396;2023-06-05T07:13:07;10.68;;;5.40;;
74124;SDS011;62475;52.192;5.396;2023-06-05T07:15:33;11.37;;;5.53;;
74124;SDS011;62475;52.192;5.396;2023-06-05T07:17:58;10.38;;;5.78;;
74124;SDS011;62475;52.192;5.396;2023-06-05T07:20:23;13.97;;;6.57;;
74124;SDS011;62475;52.192;5.396;2023-06-05T07:22:49;10.98;;;6.13;;
74124;SDS011;62475;52.192;5.396;2023-06-05T07:25:14;10.80;;;6.18;;
74124;SDS011;62475;52.192;5.396;2023-06-05T07:27:42;11.32;;;5.68;;
74124;SDS011;62475;52.192;5.396;2023-06-05T07:30:09;11.45;;;5.72;;
74124;SDS011;62475;52.192;5.396;2023-06-05T07:32:35;9.82;;;6.38;;
74124;SDS011;62475;52.192;5.396;2023-06-05T07:35:01;10.63;;;5.65;;
74124;SDS011;62475;52.192;5.396;2023-06-05T07:37:27;10.13;;;6.32;;
74124;SDS011;62475;52.192;5.396;2023-06-05T07:39:52;11.07;;;6.10;;
74124;SDS011;62475;52.192;5.396;2023-06-05T07:42:19;10.57;;;6.05;;
74124;SDS011;62475;52.192;5.396;2023-06-05T07:44:44;9.55;;;6.10;;
74124;SDS011;62475;52.192;5.396;2023-06-05T07:47:11;11.27;;;5.28;;
74124;SDS011;62475;52.192;5.396;2023-06-05T07:49:36;12.10;;;6.10;;
74124;SDS011;62475;52.192;5.396;2023-06-05T07:52:01;14.23;;;6.05;;
74124;SDS011;62475;52.192;5.396;2023-06-05T07:54:28;9.70;;;5.78;;
74124;SDS011;62475;52.192;5.396;2023-06-05T07:56:54;9.70;;;5.10;;
74124;SDS011;62475;52.192;5.396;2023-06-05T07:59:22;8.75;;;5.68;;
74124;SDS011;62475;52.192;5.396;2023-06-05T08:01:52;10.73;;;5.45;;
74124;SDS011;62475;52.192;5.396;2023-06-05T08:04:18;8.85;;;5.80;;
74124;SDS011;62475;52.192;5.396;2023-06-05T08:06:44;10.32;;;5.72;;
74124;SDS011;62475;52.192;5.396;2023-06-05T08:09:10;10.98;;;5.43;;
74124;SDS011;62475;52.192;5.396;2023-06-05T08:11:37;9.35;;;5.50;;
74124;SDS011;62475;52.192;5.396;2023-06-05T08:14:06;10.93;;;6.43;;
74124;SDS011;62475;52.192;5.396;2023-06-05T08:16:32;12.73;;;6.13;;
74124;SDS011;62475;52.192;5.396;2023-06-05T08:18:57;12.38;;;6.07;;
74124;SDS011;62475;52.192;5.396;2023-06-05T08:21:23;9.98;;;5.40;;
74124;SDS011;62475;52.192;5.396;2023-06-05T08:23:48;11.18;;;5.60;;
74124;SDS011;62475;52.192;5.396;2023-06-05T08:26:13;9.10;;;5.55;;
74124;SDS011;62475;52.192;5.396;2023-06-05T08:28:39;11.45;;;5.88;;
74124;SDS011;62475;52.192;5.396;2023-06-05T08:31:07;11.18;;;5.90;;
74124;SDS011;62475;52.192;5.396;2023-06-05T08:33:34;9.95;;;5.60;;
74124;SDS011;62475;52.192;5.396;2023-06-05T08:36:00;9.35;;;6.13;;
74124;SDS011;62475;52.192;5.396;2023-06-05T08:38:26;9.32;;;5.68;;
74124;SDS011;62475;52.192;5.396;2023-06-05T08:40:55;11.20;;;5.50;;
74124;SDS011;62475;52.192;5.396;2023-06-05T08:43:28;9.90;;;6.00;;
74124;SDS011;62475;52.192;5.396;2023-06-05T08:45:54;11.25;;;6.07;;
74124;SDS011;62475;52.192;5.396;2023-06-05T08:48:21;8.18;;;5.47;;
74124;SDS011;62475;52.192;5.396;2023-06-05T08:50:49;8.35;;;4.88;;
74124;SDS011;62475;52.192;5.396;2023-06-05T08:53:16;16.88;;;4.90;;
74124;SDS011;62475;52.192;5.396;2023-06-05T08:55:43;7.13;;;4.40;;
74124;SDS011;62475;52.192;5.396;2023-06-05T08:58:10;8.65;;;5.03;;
74124;SDS011;62475;52.192;5.396;2023-06-05T09:00:38;7.10;;;4.40;;
74124;SDS011;62475;52.192;5.396;2023-06-05T09:03:03;10.68;;;4.72;;
74124;SDS011;62475;52.192;5.396;2023-06-05T09:05:28;8.00;;;4.20;;
74124;SDS011;62475;52.192;5.396;2023-06-05T09:07:57;7.22;;;4.35;;
74124;SDS011;62475;52.192;5.396;2023-06-05T09:10:26;7.15;;;4.70;;
74124;SDS011;62475;52.192;5.396;2023-06-05T09:13:02;8.70;;;4.88;;
74124;SDS011;62475;52.192;5.396;2023-06-05T09:15:29;6.50;;;4.10;;
74124;SDS011;62475;52.192;5.396;2023-06-05T09:18:04;6.32;;;3.58;;
74124;SDS011;62475;52.192;5.396;2023-06-05T09:20:41;6.40;;;3.95;;
74124;SDS011;62475;52.192;5.396;2023-06-05T09:23:21;6.40;;;3.90;;
74124;SDS011;62475;52.192;5.396;2023-06-05T09:25:51;6.80;;;4.55;;
74124;SDS011;62475;52.192;5.396;2023-06-05T09:28:18;7.28;;;4.60;;
74124;SDS011;62475;52.192;5.396;2023-06-05T09:30:53;6.57;;;4.22;;
74124;SDS011;62475;52.192;5.396;2023-06-05T09:33:21;7.20;;;3.55;;
74124;SDS011;62475;52.192;5.396;2023-06-05T09:35:51;6.15;;;3.65;;
74124;SDS011;62475;52.192;5.396;2023-06-05T09:38:27;7.40;;;4.10;;
74124;SDS011;62475;52.192;5.396;2023-06-05T09:40:53;6.20;;;3.67;;
74124;SDS011;62475;52.192;5.396;2023-06-05T09:43:31;6.38;;;3.00;;
74124;SDS011;62475;52.192;5.396;2023-06-05T09:45:57;8.07;;;3.83;;
74124;SDS011;62475;52.192;5.396;2023-06-05T09:48:22;3.90;;;3.17;;
74124;SDS011;62475;52.192;5.396;2023-06-05T09:50:50;8.73;;;3.85;;
74124;SDS011;62475;52.192;5.396;2023-06-05T09:53:15;5.32;;;3.60;;
74124;SDS011;62475;52.192;5.396;2023-06-05T09:55:41;5.57;;;3.20;;
74124;SDS011;62475;52.192;5.396;2023-06-05T09:58:07;5.85;;;3.20;;
74124;SDS011;62475;52.192;5.396;2023-06-05T10:00:39;7.13;;;3.35;;
74124;SDS011;62475;52.192;5.396;2023-06-05T10:03:08;5.18;;;3.33;;
74124;SDS011;62475;52.192;5.396;2023-06-05T10:05:38;6.55;;;3.33;;
74124;SDS011;62475;52.192;5.396;2023-06-05T10:08:05;5.40;;;3.15;;
74124;SDS011;62475;52.192;5.396;2023-06-05T10:10:32;6.00;;;3.20;;
74124;SDS011;62475;52.192;5.396;2023-06-05T10:12:58;7.60;;;3.70;;
74124;SDS011;62475;52.192;5.396;2023-06-05T10:15:26;5.22;;;3.05;;
74124;SDS011;62475;52.192;5.396;2023-06-05T10:17:53;7.82;;;3.58;;
74124;SDS011;62475;52.192;5.396;2023-06-05T10:20:21;7.07;;;3.78;;
74124;SDS011;62475;52.192;5.396;2023-06-05T10:22:48;5.13;;;3.03;;
74124;SDS011;62475;52.192;5.396;2023-06-05T10:25:15;7.57;;;3.13;;
74124;SDS011;62475;52.192;5.396;2023-06-05T10:28:18;4.93;;;2.90;;
74124;SDS011;62475;52.192;5.396;2023-06-05T10:39:13;4.95;;;2.67;;
74124;SDS011;62475;52.192;5.396;2023-06-05T10:41:39;4.90;;;2.67;;
74124;SDS011;62475;52.192;5.396;2023-06-05T10:46:39;7.20;;;3.50;;
74124;SDS011;62475;52.192;5.396;2023-06-05T10:51:50;5.90;;;2.90;;
74124;SDS011;62475;52.192;5.396;2023-06-05T10:59:16;9.27;;;3.65;;
74124;SDS011;62475;52.192;5.396;2023-06-05T11:07:23;5.93;;;3.25;;
74124;SDS011;62475;52.192;5.396;2023-06-05T11:15:05;5.93;;;2.72;;
74124;SDS011;62475;52.192;5.396;2023-06-05T11:17:38;4.95;;;3.00;;
74124;SDS011;62475;52.192;5.396;2023-06-05T11:20:07;7.03;;;3.70;;
74124;SDS011;62475;52.192;5.396;2023-06-05T11:30:47;5.03;;;3.30;;
74124;SDS011;62475;52.192;5.396;2023-06-05T11:33:13;6.57;;;3.63;;
74124;SDS011;62475;52.192;5.396;2023-06-05T11:35:41;8.50;;;3.75;;
74124;SDS011;62475;52.192;5.396;2023-06-05T11:38:20;6.40;;;4.18;;
74124;SDS011;62475;52.192;5.396;2023-06-05T11:40:47;7.60;;;3.22;;
74124;SDS011;62475;52.192;5.396;2023-06-05T11:43:12;6.10;;;3.75;;
74124;SDS011;62475;52.192;5.396;2023-06-05T11:45:40;8.32;;;3.20;;
74124;SDS011;62475;52.192;5.396;2023-06-05T11:48:12;5.50;;;3.78;;
74124;SDS011;62475;52.192;5.396;2023-06-05T11:51:00;6.18;;;3.90;;
74124;SDS011;62475;52.192;5.396;2023-06-05T11:53:26;7.97;;;3.63;;
74124;SDS011;62475;52.192;5.396;2023-06-05T11:55:53;8.57;;;3.60;;
74124;SDS011;62475;52.192;5.396;2023-06-05T11:58:31;6.78;;;3.58;;
74124;SDS011;62475;52.192;5.396;2023-06-05T12:03:38;6.75;;;3.90;;
74124;SDS011;62475;52.192;5.396;2023-06-05T12:06:04;9.10;;;3.40;;
74124;SDS011;62475;52.192;5.396;2023-06-05T12:08:32;6.18;;;3.30;;
74124;SDS011;62475;52.192;5.396;2023-06-05T12:11:02;6.78;;;3.08;;
74124;SDS011;62475;52.192;5.396;2023-06-05T12:13:44;8.73;;;4.85;;
74124;SDS011;62475;52.192;5.396;2023-06-05T12:16:12;6.75;;;4.82;;
74124;SDS011;62475;52.192;5.396;2023-06-05T12:18:37;6.80;;;4.55;;
74124;SDS011;62475;52.192;5.396;2023-06-05T12:21:03;7.78;;;4.25;;
74124;SDS011;62475;52.192;5.396;2023-06-05T12:23:33;5.88;;;3.72;;
74124;SDS011;62475;52.192;5.396;2023-06-05T12:25:59;6.95;;;3.97;;
74124;SDS011;62475;52.192;5.396;2023-06-05T12:28:26;6.93;;;4.00;;
74124;SDS011;62475;52.192;5.396;2023-06-05T12:30:52;6.97;;;3.50;;
74124;SDS011;62475;52.192;5.396;2023-06-05T12:33:18;7.15;;;4.18;;
74124;SDS011;62475;52.192;5.396;2023-06-05T12:35:46;6.65;;;3.78;;
74124;SDS011;62475;52.192;5.396;2023-06-05T12:38:11;9.07;;;4.50;;
74124;SDS011;62475;52.192;5.396;2023-06-05T12:40:37;5.90;;;4.20;;
74124;SDS011;62475;52.192;5.396;2023-06-05T12:43:02;7.55;;;4.30;;
74124;SDS011;62475;52.192;5.396;2023-06-05T12:45:27;7.35;;;4.28;;
74124;SDS011;62475;52.192;5.396;2023-06-05T12:47:56;6.20;;;3.72;;
74124;SDS011;62475;52.192;5.396;2023-06-05T12:50:22;6.43;;;4.22;;
74124;SDS011;62475;52.192;5.396;2023-06-05T12:52:49;6.85;;;3.65;;
74124;SDS011;62475;52.192;5.396;2023-06-05T12:55:14;6.22;;;3.53;;
74124;SDS011;62475;52.192;5.396;2023-06-05T12:57:39;5.50;;;4.28;;
74124;SDS011;62475;52.192;5.396;2023-06-05T13:00:06;6.18;;;3.88;;
74124;SDS011;62475;52.192;5.396;2023-06-05T13:02:36;8.55;;;4.15;;
74124;SDS011;62475;52.192;5.396;2023-06-05T13:05:02;5.63;;;3.38;;
74124;SDS011;62475;52.192;5.396;2023-06-05T13:07:29;8.40;;;4.60;;
74124;SDS011;62475;52.192;5.396;2023-06-05T13:09:55;6.15;;;4.03;;
74124;SDS011;62475;52.192;5.396;2023-06-05T13:12:21;12.35;;;4.45;;
74124;SDS011;62475;52.192;5.396;2023-06-05T13:14:47;5.93;;;4.10;;
74124;SDS011;62475;52.192;5.396;2023-06-05T13:17:13;7.97;;;3.63;;
74124;SDS011;62475;52.192;5.396;2023-06-05T13:19:39;9.27;;;4.10;;
74124;SDS011;62475;52.192;5.396;2023-06-05T13:22:04;9.43;;;3.60;;
74124;SDS011;62475;52.192;5.396;2023-06-05T13:24:30;8.23;;;4.30;;
74124;SDS011;62475;52.192;5.396;2023-06-05T13:26:56;7.55;;;4.47;;
74124;SDS011;62475;52.192;5.396;2023-06-05T13:29:22;7.40;;;4.30;;
74124;SDS011;62475;52.192;5.396;2023-06-05T13:31:47;7.53;;;4.18;;
74124;SDS011;62475;52.192;5.396;2023-06-05T13:34:13;10.50;;;4.32;;
74124;SDS011;62475;52.192;5.396;2023-06-05T13:36:39;8.40;;;4.68;;
74124;SDS011;62475;52.192;5.396;2023-06-05T13:39:05;5.75;;;3.83;;
74124;SDS011;62475;52.192;5.396;2023-06-05T13:41:30;8.60;;;4.07;;
74124;SDS011;62475;52.192;5.396;2023-06-05T13:43:55;11.55;;;4.47;;
74124;SDS011;62475;52.192;5.396;2023-06-05T13:46:24;5.38;;;3.95;;
74124;SDS011;62475;52.192;5.396;2023-06-05T13:48:52;7.60;;;4.20;;
74124;SDS011;62475;52.192;5.396;2023-06-05T13:51:21;6.18;;;4.10;;
74124;SDS011;62475;52.192;5.396;2023-06-05T13:53:48;8.10;;;4.28;;
74124;SDS011;62475;52.192;5.396;2023-06-05T13:56:14;6.38;;;3.70;;
74124;SDS011;62475;52.192;5.396;2023-06-05T13:58:39;7.45;;;3.70;;
74124;SDS011;62475;52.192;5.396;2023-06-05T14:01:05;10.63;;;5.05;;
74124;SDS011;62475;52.192;5.396;2023-06-05T14:03:30;5.80;;;3.75;;
74124;SDS011;62475;52.192;5.396;2023-06-05T14:05:55;6.32;;;3.30;;
74124;SDS011;62475;52.192;5.396;2023-06-05T14:08:21;6.18;;;3.47;;
74124;SDS011;62475;52.192;5.396;2023-06-05T14:10:46;7.38;;;4.05;;
74124;SDS011;62475;52.192;5.396;2023-06-05T14:13:12;6.35;;;4.22;;
74124;SDS011;62475;52.192;5.396;2023-06-05T14:18:05;6.50;;;4.03;;
74124;SDS011;62475;52.192;5.396;2023-06-05T14:20:31;7.78;;;4.00;;
74124;SDS011;62475;52.192;5.396;2023-06-05T14:22:58;7.32;;;3.70;;
74124;SDS011;62475;52.192;5.396;2023-06-05T14:25:24;8.93;;;3.92;;
74124;SDS011;62475;52.192;5.396;2023-06-05T14:27:54;7.93;;;4.10;;
74124;SDS011;62475;52.192;5.396;2023-06-05T14:30:20;6.70;;;3.67;;
74124;SDS011;62475;52.192;5.396;2023-06-05T14:32:49;5.55;;;3.83;;
74124;SDS011;62475;52.192;5.396;2023-06-05T14:35:14;7.05;;;4.13;;
74124;SDS011;62475;52.192;5.396;2023-06-05T14:37:41;7.20;;;4.25;;
74124;SDS011;62475;52.192;5.396;2023-06-05T14:40:07;7.35;;;4.03;;
74124;SDS011;62475;52.192;5.396;2023-06-05T14:42:32;8.98;;;3.53;;
74124;SDS011;62475;52.192;5.396;2023-06-05T14:44:58;6.78;;;3.78;;
74124;SDS011;62475;52.192;5.396;2023-06-05T14:47:23;8.93;;;3.83;;
74124;SDS011;62475;52.192;5.396;2023-06-05T14:49:51;10.02;;;3.53;;
74124;SDS011;62475;52.192;5.396;2023-06-05T14:52:16;8.15;;;3.80;;
74124;SDS011;62475;52.192;5.396;2023-06-05T14:54:45;6.93;;;3.75;;
74124;SDS011;62475;52.192;5.396;2023-06-05T14:57:11;5.10;;;3.70;;
74124;SDS011;62475;52.192;5.396;2023-06-05T14:59:36;8.63;;;3.80;;
74124;SDS011;62475;52.192;5.396;2023-06-05T15:02:01;7.70;;;3.90;;
74124;SDS011;62475;52.192;5.396;2023-06-05T15:04:27;7.63;;;3.60;;
74124;SDS011;62475;52.192;5.396;2023-06-05T15:06:53;6.22;;;3.75;;
74124;SDS011;62475;52.192;5.396;2023-06-05T15:09:22;5.90;;;3.47;;
74124;SDS011;62475;52.192;5.396;2023-06-05T15:11:48;5.88;;;3.20;;
74124;SDS011;62475;52.192;5.396;2023-06-05T15:14:14;5.50;;;3.80;;
74124;SDS011;62475;52.192;5.396;2023-06-05T15:16:40;5.72;;;3.90;;
74124;SDS011;62475;52.192;5.396;2023-06-05T15:19:05;6.72;;;4.07;;
74124;SDS011;62475;52.192;5.396;2023-06-05T15:21:30;8.88;;;4.30;;
74124;SDS011;62475;52.192;5.396;2023-06-05T15:23:56;8.18;;;3.85;;